Time;durP1;ratioP1;P1;durP2;ratioP2;P2;SDS_P1;SDS_P2;PMS_P1;PMS_P2;Temp;Humidity;BMP_temperature;BMP_pressure;BME280_temperature;BME280_humidity;BME280_pressure;Samples;Min_cycle;Max_cycle;Signal;HPM_P1;HPM_P2
2022/04/29 00:03:04;;;;;;;4.30;2.80;;;20.50;48.00;;;;;;221170;1268;24321;-69
2022/04/29 00:08:10;;;;;;;3.40;2.30;;;20.50;47.70;;;;;;220571;1268;25392;-70
2022/04/29 00:13:15;;;;;;;4.10;2.80;;;20.50;47.70;;;;;;220537;1268;25454;-68
2022/04/29 00:18:19;;;;;;;4.80;2.80;;;20.50;48.20;;;;;;220610;1268;22682;-69
2022/04/29 00:23:23;;;;;;;4.20;2.70;;;20.50;47.70;;;;;;220915;1270;24411;-68
2022/04/29 00:28:27;;;;;;;4.30;2.60;;;20.50;47.70;;;;;;221115;1268;26972;-68
2022/04/29 00:33:31;;;;;;;6.00;2.80;;;20.70;47.50;;;;;;220843;1268;25514;-69
2022/04/29 00:38:34;;;;;;;4.00;2.40;;;21.10;46.80;;;;;;220798;1267;24246;-69
2022/04/29 00:43:38;;;;;;;5.10;2.90;;;21.40;45.90;;;;;;220361;1268;24391;-67
2022/04/29 00:48:42;;;;;;;4.60;2.90;;;21.60;45.40;;;;;;220768;1269;22560;-70
2022/04/29 00:53:45;;;;;;;4.50;2.90;;;21.80;45.20;;;;;;220750;1268;25264;-70
2022/04/29 00:58:58;;;;;;;5.60;3.30;;;21.90;44.50;;;;;;220305;1268;22544;-67
2022/04/29 01:04:03;;;;;;;4.90;3.30;;;22.00;44.70;;;;;;220613;1268;22551;-71
2022/04/29 01:09:06;;;;;;;5.00;3.00;;;22.10;44.60;;;;;;220628;1268;24224;-69
2022/04/29 01:14:11;;;;;;;4.70;3.00;;;22.20;44.40;;;;;;221010;1268;22871;-69
2022/04/29 01:19:22;;;;;;;4.90;3.00;;;22.30;44.60;;;;;;220280;1267;25336;-70
2022/04/29 01:24:28;;;;;;;4.60;2.80;;;22.30;44.50;;;;;;220982;1268;22533;-70
2022/04/29 01:29:32;;;;;;;4.60;3.00;;;22.30;44.20;;;;;;220469;1268;23930;-72
2022/04/29 01:34:37;;;;;;;5.10;2.90;;;22.20;44.30;;;;;;220937;1268;22647;-69
2022/04/29 01:39:42;;;;;;;4.70;3.00;;;22.10;44.80;;;;;;220867;1268;22551;-67
2022/04/29 01:44:46;;;;;;;5.30;3.40;;;22.00;44.70;;;;;;220603;1269;22760;-68
2022/04/29 01:49:50;;;;;;;5.10;3.10;;;21.90;44.90;;;;;;220715;1268;23373;-69
2022/04/29 01:54:54;;;;;;;5.30;3.00;;;21.80;45.80;;;;;;220765;1268;24291;-68
2022/04/29 01:59:58;;;;;;;5.30;3.30;;;21.70;45.40;;;;;;220467;1268;25351;-68
2022/04/29 02:05:18;;;;;;;6.80;3.20;;;21.60;45.80;;;;;;220750;1268;25407;-70
2022/04/29 02:10:24;;;;;;;4.40;3.30;;;21.60;45.20;;;;;;220543;1268;25319;-67
2022/04/29 02:15:29;;;;;;;5.90;3.20;;;21.50;46.10;;;;;;220460;1268;24306;-68
2022/04/29 02:20:38;;;;;;;4.90;3.30;;;21.50;45.80;;;;;;220828;1268;24427;-68
2022/04/29 02:25:42;;;;;;;6.10;3.50;;;21.40;45.80;;;;;;220817;1267;25359;-69
2022/04/29 02:30:46;;;;;;;4.80;3.20;;;21.40;45.50;;;;;;220505;1267;24275;-70
2022/04/29 02:35:54;;;;;;;4.90;3.20;;;21.30;46.00;;;;;;220200;1267;24411;-68
2022/04/29 02:40:58;;;;;;;5.20;3.40;;;21.30;46.10;;;;;;220359;1268;22532;-69
2022/04/29 02:46:03;;;;;;;5.30;3.30;;;21.20;46.20;;;;;;221003;1268;25419;-69
2022/04/29 02:51:07;;;;;;;4.90;3.40;;;21.20;46.60;;;;;;220465;1267;22546;-72
2022/04/29 02:56:11;;;;;;;5.90;3.60;;;21.20;46.40;;;;;;220250;1267;22547;-69
2022/04/29 03:01:44;;;;;;;5.70;3.80;;;21.20;46.30;;;;;;220226;1268;22622;-69
2022/04/29 03:06:48;;;;;;;6.10;3.70;;;21.10;46.40;;;;;;220192;1268;22528;-69
2022/04/29 03:11:52;;;;;;;6.50;3.90;;;21.10;46.50;;;;;;220838;1267;25191;-71
2022/04/29 03:16:56;;;;;;;5.10;3.90;;;21.00;46.40;;;;;;220672;1267;25306;-70
2022/04/29 03:22:02;;;;;;;5.10;3.40;;;21.10;46.60;;;;;;220234;1267;26583;-70
2022/04/29 03:27:07;;;;;;;5.60;3.80;;;21.00;46.50;;;;;;220555;1267;24241;-68
2022/04/29 03:32:12;;;;;;;5.00;3.50;;;21.00;46.50;;;;;;220748;1268;25292;-66
2022/04/29 03:37:39;;;;;;;5.30;3.40;;;21.00;46.90;;;;;;220721;1267;23303;-70
2022/04/29 03:42:43;;;;;;;5.30;3.50;;;21.00;47.10;;;;;;220468;1267;24420;-66
2022/04/29 03:47:47;;;;;;;4.90;3.40;;;20.90;46.50;;;;;;220649;1267;22611;-71
2022/04/29 03:53:02;;;;;;;4.90;3.40;;;20.90;46.60;;;;;;220713;1267;23940;-67
2022/04/29 03:58:10;;;;;;;5.90;3.60;;;20.90;47.00;;;;;;220640;1268;24265;-69
2022/04/29 04:03:26;;;;;;;5.60;3.80;;;20.80;46.70;;;;;;220922;1268;24347;-69
2022/04/29 04:08:38;;;;;;;4.90;3.30;;;20.80;46.70;;;;;;220663;1267;23041;-66
2022/04/29 04:13:49;;;;;;;5.00;3.30;;;20.80;46.80;;;;;;220532;1267;22602;-67
2022/04/29 04:19:05;;;;;;;6.30;4.00;;;20.80;46.80;;;;;;220581;1268;26724;-70
2022/04/29 04:24:11;;;;;;;5.30;3.50;;;20.70;46.80;;;;;;220150;1267;531091;-68
2022/04/29 04:29:20;;;;;;;5.60;3.40;;;20.70;47.10;;;;;;220467;1267;25613;-68
2022/04/29 04:39:49;;;;;;;5.10;3.80;;;20.70;46.80;;;;;;220861;1267;22616;-70
2022/04/29 04:44:53;;;;;;;5.80;3.90;;;20.70;46.90;;;;;;220453;1268;22599;-68
2022/04/29 04:49:57;;;;;;;5.50;3.70;;;20.70;46.90;;;;;;220614;1267;25354;-69
2022/04/29 04:55:06;;;;;;;6.70;4.00;;;20.70;46.90;;;;;;220908;1267;24777;-68
2022/04/29 05:00:12;;;;;;;6.50;4.20;;;20.60;46.80;;;;;;220895;1267;24070;-69
2022/04/29 05:05:34;;;;;;;5.60;3.60;;;20.60;47.10;;;;;;220953;1267;22563;-70
2022/04/29 05:10:48;;;;;;;5.50;3.80;;;20.60;46.80;;;;;;220408;1268;24379;-69
2022/04/29 05:15:53;;;;;;;5.40;3.70;;;20.60;46.80;;;;;;220682;1267;22668;-71
2022/04/29 05:21:04;;;;;;;5.80;3.90;;;20.60;46.90;;;;;;220464;1267;22560;-70
2022/04/29 05:26:08;;;;;;;5.90;3.60;;;20.60;47.00;;;;;;220913;1267;22541;-69
2022/04/29 05:31:31;;;;;;;5.10;3.70;;;20.60;46.90;;;;;;220734;1268;25430;-70
2022/04/29 05:36:53;;;;;;;6.00;3.60;;;20.60;46.80;;;;;;220432;1267;24307;-71
2022/04/29 05:42:19;;;;;;;5.30;3.60;;;20.60;46.90;;;;;;220716;1267;24196;-68
2022/04/29 05:47:22;;;;;;;5.70;3.50;;;20.60;47.10;;;;;;220573;1267;22605;-70
2022/04/29 05:52:26;;;;;;;5.70;3.60;;;20.60;46.80;;;;;;220742;1267;22558;-69
2022/04/29 05:57:31;;;;;;;5.70;3.60;;;20.60;47.40;;;;;;220872;1267;25235;-70
2022/04/29 06:02:44;;;;;;;5.00;3.40;;;20.60;46.80;;;;;;220435;1267;24354;-69
2022/04/29 06:07:57;;;;;;;4.70;3.30;;;20.70;46.70;;;;;;220554;1267;22692;-69
2022/04/29 06:13:11;;;;;;;4.90;3.40;;;20.60;46.60;;;;;;220852;1267;22516;-70
2022/04/29 06:18:36;;;;;;;4.80;3.30;;;20.70;46.70;;;;;;220549;1267;22564;-70
2022/04/29 06:24:12;;;;;;;5.70;3.80;;;20.60;46.70;;;;;;220772;1267;22602;-69
2022/04/29 06:29:19;;;;;;;5.80;3.60;;;20.70;46.80;;;;;;220751;1268;22535;-69
2022/04/29 06:34:24;;;;;;;6.10;3.70;;;20.70;46.70;;;;;;220733;1268;22688;-70
2022/04/29 06:39:30;;;;;;;5.00;3.30;;;20.60;46.80;;;;;;220719;1267;22943;-70
2022/04/29 06:44:43;;;;;;;4.90;2.80;;;20.50;46.80;;;;;;220533;1268;22543;-71
2022/04/29 06:50:21;;;;;;;6.00;3.60;;;20.60;46.80;;;;;;220391;1268;24260;-71
2022/04/29 06:55:45;;;;;;;4.00;2.90;;;20.60;46.80;;;;;;220368;1267;25397;-70
2022/04/29 07:00:50;;;;;;;5.00;3.00;;;20.60;47.10;;;;;;220347;1268;22550;-71
2022/04/29 07:06:00;;;;;;;5.20;3.50;;;20.60;46.80;;;;;;220650;1267;22578;-69
2022/04/29 07:11:04;;;;;;;4.50;2.80;;;20.70;46.80;;;;;;220577;1267;22877;-74
2022/04/29 07:16:17;;;;;;;6.60;3.30;;;20.60;46.80;;;;;;220896;1268;22528;-70
2022/04/29 07:21:27;;;;;;;5.20;3.60;;;20.70;46.80;;;;;;220806;1267;22561;-71
2022/04/29 07:26:31;;;;;;;3.90;2.40;;;20.60;46.80;;;;;;221015;1267;24249;-72
2022/04/29 07:31:39;;;;;;;4.30;2.90;;;20.60;46.80;;;;;;220921;1267;22973;-73
2022/04/29 07:42:24;;;;;;;4.10;2.90;;;20.70;46.80;;;;;;220697;1267;24422;-64
2022/04/29 07:47:30;;;;;;;5.20;3.00;;;20.70;46.80;;;;;;220867;1267;25385;-70
2022/04/29 07:52:41;;;;;;;5.00;3.00;;;20.70;46.90;;;;;;220878;1267;24306;-71
2022/04/29 07:57:53;;;;;;;5.20;2.80;;;20.70;46.90;;;;;;220993;1267;22613;-74
2022/04/29 08:03:02;;;;;;;6.50;2.90;;;20.70;46.90;;;;;;220743;1267;25242;-71
2022/04/29 08:08:37;;;;;;;4.00;2.70;;;20.70;46.90;;;;;;220684;1267;24221;-71
2022/04/29 08:13:44;;;;;;;6.70;2.90;;;20.70;47.20;;;;;;220673;1267;25625;-70
2022/04/29 08:19:27;;;;;;;3.70;2.50;;;20.70;46.90;;;;;;220884;1267;23026;-71
2022/04/29 08:24:43;;;;;;;5.30;3.10;;;20.70;46.80;;;;;;220516;1267;22619;-74
2022/04/29 08:29:47;;;;;;;5.60;3.00;;;20.80;46.80;;;;;;220779;1267;24224;-66
2022/04/29 08:34:51;;;;;;;5.80;2.80;;;20.80;46.80;;;;;;220928;1267;24368;-73
2022/04/29 08:39:55;;;;;;;6.70;3.10;;;20.80;46.70;;;;;;220617;1267;24247;-73
2022/04/29 08:44:59;;;;;;;4.30;3.10;;;20.80;46.70;;;;;;220284;1269;22563;-71
2022/04/29 08:50:18;;;;;;;4.80;3.20;;;20.90;46.60;;;;;;220925;1266;24428;-72
2022/04/29 09:00:48;;;;;;;5.50;3.30;;;21.00;46.50;;;;;;220861;1267;22637;-72
2022/04/29 09:05:53;;;;;;;4.90;2.80;;;21.00;46.50;;;;;;220843;1266;24450;-74
2022/04/29 09:11:00;;;;;;;3.50;2.40;;;21.00;46.60;;;;;;220750;1267;22665;-70
2022/04/29 09:16:13;;;;;;;4.00;2.70;;;21.00;46.60;;;;;;220910;1267;24424;-73
2022/04/29 09:21:19;;;;;;;7.00;2.90;;;21.00;46.60;;;;;;220986;1267;24250;-75
2022/04/29 09:26:34;;;;;;;4.40;2.40;;;20.90;46.60;;;;;;220763;1267;22619;-73
2022/04/29 09:31:59;;;;;;;4.10;2.60;;;21.00;46.70;;;;;;220942;1267;24252;-73
2022/04/29 09:37:30;;;;;;;6.30;3.50;;;21.00;46.70;;;;;;220777;1268;22539;-72
2022/04/29 09:42:41;;;;;;;4.10;2.50;;;21.10;46.70;;;;;;220337;1267;25305;-72
2022/04/29 09:47:54;;;;;;;4.50;2.60;;;21.10;47.20;;;;;;220762;1267;22574;-69
2022/04/29 09:53:18;;;;;;;6.30;3.10;;;21.10;46.70;;;;;;220955;1267;24011;-69
2022/04/29 09:58:23;;;;;;;5.40;2.70;;;21.10;46.90;;;;;;220946;1267;25343;-70
2022/04/29 10:03:27;;;;;;;4.60;2.50;;;21.20;46.80;;;;;;220984;1267;22554;-70
2022/04/29 10:08:31;;;;;;;4.50;2.70;;;21.20;46.50;;;;;;221199;1267;22539;-72
2022/04/29 10:13:36;;;;;;;4.20;2.50;;;21.20;46.50;;;;;;220729;1267;24246;-70
2022/04/29 10:24:36;;;;;;;4.00;2.40;;;21.30;46.60;;;;;;220943;1267;24430;-73
2022/04/29 10:29:40;;;;;;;4.40;2.60;;;21.30;46.60;;;;;;220786;1267;24260;-71
2022/04/29 10:34:44;;;;;;;3.60;2.60;;;21.30;46.60;;;;;;220682;1267;24206;-71
2022/04/29 10:40:08;;;;;;;7.30;2.70;;;21.30;46.60;;;;;;220453;1267;22704;-58
2022/04/29 10:45:20;;;;;;;6.60;2.30;;;21.40;46.50;;;;;;220982;1267;24097;-64
2022/04/29 10:50:37;;;;;;;5.80;2.40;;;21.50;46.90;;;;;;220856;1268;22693;-62
2022/04/29 10:56:31;;;;;;;5.80;2.30;;;21.60;46.70;;;;;;220394;1266;25401;-64
2022/04/29 11:01:48;;;;;;;8.80;3.60;;;21.70;46.40;;;;;;220818;1265;24361;-63
2022/04/29 11:06:52;;;;;;;12.20;2.70;;;22.10;46.20;;;;;;220863;1265;25316;-57
2022/04/29 11:11:57;;;;;;;6.70;2.50;;;22.40;46.70;;;;;;220619;1268;22538;-59
2022/04/29 11:17:34;;;;;;;10.90;2.50;;;22.50;46.80;;;;;;220707;1267;22541;-57
2022/04/29 11:28:02;;;;;;;7.80;2.70;;;22.60;46.80;;;;;;220658;1267;22531;-52
2022/04/29 11:33:29;;;;;;;15.40;2.80;;;22.60;46.30;;;;;;220954;1268;22710;-53
2022/04/29 11:38:41;;;;;;;9.60;2.90;;;22.70;46.60;;;;;;220858;1267;22579;-59
2022/04/29 11:43:47;;;;;;;7.80;2.50;;;22.90;46.80;;;;;;220601;1267;26456;-62
2022/04/29 11:48:59;;;;;;;8.70;2.20;;;22.80;46.30;;;;;;220566;1267;24334;-57
2022/04/29 11:54:06;;;;;;;6.70;2.90;;;22.90;47.00;;;;;;220858;1267;25285;-56
2022/04/29 11:59:11;;;;;;;4.70;2.30;;;22.90;47.00;;;;;;220695;1268;24300;-57
2022/04/29 12:04:15;;;;;;;13.10;3.50;;;22.90;46.90;;;;;;220581;1270;22587;-59
2022/04/29 12:09:30;;;;;;;9.90;3.30;;;23.00;47.00;;;;;;221046;1267;22593;-59
2022/04/29 12:14:35;;;;;;;9.20;3.50;;;23.10;47.10;;;;;;220692;1266;22613;-60
2022/04/29 12:19:41;;;;;;;10.90;3.80;;;23.10;47.90;;;;;;220864;1267;22746;-57
2022/04/29 12:24:45;;;;;;;15.30;5.00;;;23.10;49.20;;;;;;221105;1268;22567;-54
2022/04/29 12:34:48;;;;;;;13.70;3.50;;;23.20;52.10;;;;;;220850;1267;22684;-56
2022/04/29 12:35:21;;;;;;;12.40;3.70;;;23.10;51.00;;;;;;220674;1267;24871;-55
2022/04/29 12:40:29;;;;;;;10.80;3.60;;;23.20;50.70;;;;;;221037;1267;22558;-55
2022/04/29 12:45:36;;;;;;;13.20;3.80;;;23.20;50.80;;;;;;220637;1267;22578;-57
2022/04/29 12:50:46;;;;;;;14.90;4.00;;;23.30;51.20;;;;;;220294;1267;22999;-56
2022/04/29 12:55:53;;;;;;;9.20;3.20;;;23.30;50.20;;;;;;220214;1264;22621;-60
2022/04/29 13:01:03;;;;;;;21.60;3.60;;;23.40;50.70;;;;;;220307;1267;24425;-60
2022/04/29 13:06:34;;;;;;;14.80;3.60;;;23.40;49.40;;;;;;220371;1267;25239;-66
2022/04/29 13:11:45;;;;;;;10.20;2.90;;;23.40;47.90;;;;;;220479;1269;22588;-64
2022/04/29 13:17:08;;;;;;;12.40;3.10;;;23.40;46.30;;;;;;220683;1267;22626;-63
2022/04/29 13:22:21;;;;;;;8.70;2.80;;;23.40;46.10;;;;;;220299;1267;22602;-60
2022/04/29 13:27:49;;;;;;;13.10;3.40;;;23.50;46.10;;;;;;220403;1268;23922;-63
2022/04/29 13:45:46;;;;;;;7.10;2.90;;;23.60;45.60;;;;;;212281;1284;948346;-43
2022/04/29 13:50:49;;;;;;;8.80;2.40;;;23.60;45.40;;;;;;216577;1290;23230;-42
2022/04/29 13:56:01;;;;;;;6.90;2.60;;;23.60;45.30;;;;;;216633;1290;23439;-48
2022/04/29 14:01:09;;;;;;;8.90;2.70;;;23.60;45.20;;;;;;216550;1291;22713;-42
2022/04/29 14:06:13;;;;;;;9.70;2.20;;;23.50;44.90;;;;;;216302;1290;24254;-44
2022/04/29 14:11:20;;;;;;;9.00;2.90;;;23.50;45.00;;;;;;215957;1290;22562;-41
2022/04/29 14:22:52;;;;;;;11.50;3.00;;;23.40;44.80;;;;;;215355;1293;67001;-47
2022/04/29 14:27:59;;;;;;;9.80;2.60;;;23.40;45.00;;;;;;214884;1293;22590;-45
2022/04/29 14:33:02;;;;;;;8.40;3.00;;;23.40;44.50;;;;;;217273;1293;22622;-48
2022/04/29 14:38:06;;;;;;;10.80;2.90;;;23.40;45.00;;;;;;215613;1293;22585;-46
2022/04/29 14:43:10;;;;;;;11.90;2.90;;;23.50;47.20;;;;;;215457;1293;22577;-44
2022/04/29 14:48:15;;;;;;;10.60;2.70;;;23.40;45.90;;;;;;215625;1293;22661;-42
2022/04/29 14:53:19;;;;;;;11.30;2.50;;;23.40;47.00;;;;;;215464;1296;23991;-40
2022/04/29 14:58:26;;;;;;;14.80;3.10;;;23.40;46.90;;;;;;215514;1293;22625;-45
2022/04/29 15:03:30;;;;;;;11.40;2.80;;;23.40;47.00;;;;;;220040;1293;22576;-42
2022/04/29 15:08:34;;;;;;;6.90;2.70;;;23.40;47.60;;;;;;215685;1293;22645;-42
2022/04/29 15:19:03;;;;;;;15.10;2.70;;;23.40;47.70;;;;;;215622;1293;24072;-43
2022/04/29 15:24:07;;;;;;;14.90;2.70;;;23.30;48.00;;;;;;215351;1294;23985;-44
2022/04/29 15:29:11;;;;;;;7.90;2.80;;;23.30;48.00;;;;;;215774;1293;22636;-43
2022/04/29 15:34:15;;;;;;;12.70;2.70;;;23.30;47.60;;;;;;217698;1293;24341;-42
2022/04/29 15:39:24;;;;;;;10.30;2.50;;;23.30;47.60;;;;;;215815;1293;22570;-41
2022/04/29 15:44:28;;;;;;;9.10;2.70;;;23.30;47.40;;;;;;215448;1293;22638;-44
2022/04/29 15:49:32;;;;;;;10.00;2.40;;;23.30;47.80;;;;;;215287;1296;22578;-43
2022/04/29 15:54:37;;;;;;;8.40;2.50;;;23.20;47.60;;;;;;215820;1293;23048;-43
2022/04/29 15:59:45;;;;;;;9.70;2.70;;;23.20;47.10;;;;;;215558;1293;24041;-41
2022/04/29 16:04:51;;;;;;;7.00;2.70;;;23.20;47.10;;;;;;215913;1293;24298;-41
2022/04/29 16:09:56;;;;;;;8.60;2.60;;;23.10;47.10;;;;;;215526;1296;24444;-42
2022/04/29 16:15:00;;;;;;;6.80;2.80;;;23.10;46.70;;;;;;215576;1296;22576;-42
2022/04/29 16:25:42;;;;;;;7.90;2.80;;;23.00;46.50;;;;;;215271;1293;22745;-43
2022/04/29 16:30:51;;;;;;;7.90;3.30;;;23.00;46.30;;;;;;215472;1294;24498;-42
2022/04/29 16:35:56;;;;;;;6.40;2.80;;;22.90;43.10;;;;;;215989;1293;24492;-39
2022/04/29 16:41:02;;;;;;;6.50;3.20;;;22.70;39.60;;;;;;215764;1296;24254;-43
2022/04/29 16:46:08;;;;;;;7.10;3.10;;;22.80;39.50;;;;;;215747;1294;24506;-43
2022/04/29 16:51:14;;;;;;;7.40;3.30;;;23.00;40.50;;;;;;215664;1294;23947;-41
2022/04/29 16:56:18;;;;;;;8.20;3.10;;;23.20;40.10;;;;;;215430;1293;24236;-44
2022/04/29 17:01:24;;;;;;;7.00;2.90;;;23.40;38.20;;;;;;215858;1293;22563;-42
2022/04/29 17:06:32;;;;;;;5.20;2.50;;;23.50;38.60;;;;;;215266;1294;25283;-42
2022/04/29 17:11:39;;;;;;;5.90;2.50;;;23.70;38.90;;;;;;215326;1294;22589;-45
2022/04/29 17:16:49;;;;;;;7.90;3.30;;;23.90;39.50;;;;;;215379;1293;25221;-41
2022/04/29 17:21:56;;;;;;;7.20;3.00;;;23.90;41.30;;;;;;216008;1293;22567;-42
2022/04/29 17:27:00;;;;;;;6.70;3.10;;;23.90;42.40;;;;;;215720;1293;23508;-43
2022/04/29 17:32:05;;;;;;;9.00;2.90;;;23.80;43.00;;;;;;215384;1293;24256;-41
2022/04/29 17:37:12;;;;;;;6.20;2.60;;;23.80;43.80;;;;;;215446;1294;22784;-47
2022/04/29 17:42:33;;;;;;;4.50;2.30;;;23.70;43.80;;;;;;215340;1296;24011;-43
2022/04/29 17:47:41;;;;;;;12.50;2.70;;;23.70;44.20;;;;;;215691;1293;22553;-42
2022/04/29 17:52:55;;;;;;;4.00;2.30;;;23.70;45.10;;;;;;215530;1293;24344;-43
2022/04/29 17:58:14;;;;;;;7.30;2.70;;;23.60;45.70;;;;;;215473;1293;22696;-44
2022/04/29 18:03:30;;;;;;;7.90;2.50;;;23.70;46.30;;;;;;215829;1293;24354;-45
2022/04/29 18:08:36;;;;;;;9.10;3.10;;;23.60;47.00;;;;;;215745;1293;25339;-44
2022/04/29 18:13:41;;;;;;;9.60;2.70;;;23.60;47.70;;;;;;215964;1293;22669;-43
2022/04/29 18:18:45;;;;;;;8.30;2.80;;;23.60;47.60;;;;;;215485;1293;24255;-42
2022/04/29 18:23:51;;;;;;;8.70;3.30;;;23.50;47.40;;;;;;215263;1293;24285;-43
2022/04/29 18:28:56;;;;;;;8.60;2.40;;;23.60;47.90;;;;;;214993;1296;25353;-43
2022/04/29 18:34:03;;;;;;;6.20;2.90;;;23.50;48.10;;;;;;215439;1293;23161;-44
2022/04/29 18:39:17;;;;;;;5.60;2.60;;;23.60;47.80;;;;;;215171;1293;22586;-41
2022/04/29 18:44:26;;;;;;;8.30;2.70;;;23.60;47.10;;;;;;215330;1293;22726;-41
2022/04/29 18:49:30;;;;;;;8.10;2.90;;;23.60;46.80;;;;;;215062;1294;22650;-43
2022/04/29 18:54:38;;;;;;;6.00;3.00;;;23.60;46.60;;;;;;215831;1293;25564;-41
2022/04/29 18:59:43;;;;;;;6.80;2.90;;;23.60;46.60;;;;;;215554;1293;24149;-40
2022/04/29 19:04:53;;;;;;;7.00;3.40;;;23.60;46.50;;;;;;215812;1293;24279;-40
2022/04/29 19:10:05;;;;;;;;;;;23.50;46.10;;;;;;215415;1295;22647;-42
2022/04/29 19:15:11;;;;;;;8.90;4.00;;;23.50;46.10;;;;;;215668;1293;25346;-43
2022/04/29 19:20:23;;;;;;;12.80;3.90;;;23.40;45.80;;;;;;215630;1294;24108;-40
2022/04/29 19:25:31;;;;;;;8.30;3.70;;;23.40;45.90;;;;;;215439;1293;22585;-44
2022/04/29 19:30:50;;;;;;;10.60;3.50;;;23.30;45.80;;;;;;215738;1294;24776;-41
2022/04/29 19:36:21;;;;;;;;;;;23.30;46.10;;;;;;215441;1293;25264;-42
2022/04/29 19:41:29;;;;;;;10.70;4.30;;;23.30;46.00;;;;;;215816;1294;22748;-42
2022/04/29 19:46:37;;;;;;;8.80;4.70;;;23.30;46.40;;;;;;215760;1293;25401;-42
2022/04/29 19:51:45;;;;;;;9.20;4.50;;;23.30;46.50;;;;;;215318;1293;22565;-42
2022/04/29 20:08:14;;;;;;;12.30;4.80;;;23.10;46.10;;;;;;215576;1293;25542;-41
2022/04/29 20:13:29;;;;;;;11.70;5.40;;;23.10;48.30;;;;;;215376;1293;23980;-40
2022/04/29 20:18:49;;;;;;;17.00;5.20;;;23.10;49.70;;;;;;215296;1296;22846;-42
2022/04/29 20:23:54;;;;;;;12.50;5.50;;;23.10;49.50;;;;;;215252;1296;23065;-43
2022/04/29 20:29:03;;;;;;;12.30;5.00;;;23.10;49.20;;;;;;215388;1293;22879;-39
2022/04/29 20:34:10;;;;;;;11.20;5.10;;;23.00;48.90;;;;;;215862;1293;22567;-43
2022/04/29 20:44:50;;;;;;;15.80;5.30;;;23.00;51.30;;;;;;215297;1293;25598;-41
2022/04/29 20:49:58;;;;;;;11.00;5.30;;;23.10;54.80;;;;;;215797;1293;22643;-40
2022/04/29 20:55:04;;;;;;;13.10;6.00;;;23.00;54.00;;;;;;215844;1293;22600;-40
2022/04/29 21:00:11;;;;;;;10.00;5.00;;;23.00;54.00;;;;;;215865;1293;22736;-41
2022/04/29 21:05:15;;;;;;;9.10;4.90;;;23.00;53.90;;;;;;215914;1293;25261;-40
2022/04/29 21:10:23;;;;;;;8.10;4.30;;;23.00;53.80;;;;;;216172;1293;23260;-41
2022/04/29 21:15:31;;;;;;;10.60;4.70;;;23.00;54.10;;;;;;215564;1293;22749;-40
2022/04/29 21:20:43;;;;;;;11.50;4.90;;;22.90;53.90;;;;;;215406;1293;22806;-41
2022/04/29 21:25:49;;;;;;;12.10;5.20;;;22.90;53.80;;;;;;215017;1296;24341;-39
2022/04/29 21:31:00;;;;;;;11.70;5.50;;;22.80;53.60;;;;;;215597;1293;22684;-40
2022/04/29 21:36:04;;;;;;;;;;;22.80;53.40;;;;;;215555;1293;22574;-40
2022/04/29 21:41:09;;;;;;;9.60;4.90;;;22.80;53.50;;;;;;215912;1293;25433;-41
2022/04/29 21:46:13;;;;;;;14.10;5.70;;;22.70;53.40;;;;;;215882;1293;22668;-41
2022/04/29 21:51:16;;;;;;;11.20;5.30;;;22.70;53.50;;;;;;215914;1293;24696;-40
2022/04/29 21:56:21;;;;;;;11.30;5.80;;;22.70;54.00;;;;;;215533;1293;22614;-43
2022/04/29 22:01:26;;;;;;;10.50;5.60;;;22.70;53.60;;;;;;215731;1293;24264;-41
2022/04/29 22:06:31;;;;;;;9.70;5.10;;;22.70;53.20;;;;;;215759;1293;25368;-41
2022/04/29 22:11:34;;;;;;;8.80;4.20;;;22.70;53.80;;;;;;215780;1293;22564;-42
2022/04/29 22:16:39;;;;;;;11.70;5.40;;;22.60;53.50;;;;;;215636;1293;22840;-41
2022/04/29 22:21:43;;;;;;;9.90;5.20;;;22.60;53.50;;;;;;215657;1294;22569;-41
2022/04/29 22:26:46;;;;;;;12.10;5.10;;;22.60;53.30;;;;;;215810;1293;22585;-41
2022/04/29 22:31:50;;;;;;;13.80;6.10;;;22.60;53.30;;;;;;215750;1293;25347;-40
2022/04/29 22:36:54;;;;;;;13.30;5.40;;;22.60;53.40;;;;;;215537;1293;22796;-41
2022/04/29 22:41:59;;;;;;;13.40;5.20;;;22.60;53.20;;;;;;215534;1293;25251;-40
2022/04/29 22:47:03;;;;;;;11.80;5.80;;;22.50;53.10;;;;;;215596;1293;22744;-42
2022/04/29 22:52:08;;;;;;;8.30;5.30;;;22.50;53.30;;;;;;215750;1293;22585;-41
2022/04/29 22:57:12;;;;;;;9.40;5.30;;;22.50;53.10;;;;;;215457;1294;27132;-40
2022/04/29 23:02:18;;;;;;;13.30;5.80;;;22.50;53.40;;;;;;215850;1296;25458;-40
2022/04/29 23:07:22;;;;;;;9.00;5.40;;;22.40;52.40;;;;;;215695;1296;22874;-39
2022/04/29 23:12:27;;;;;;;14.40;5.60;;;22.40;52.80;;;;;;215740;1294;22598;-41
2022/04/29 23:22:54;;;;;;;11.70;5.40;;;22.40;52.70;;;;;;215643;1294;25375;-40
2022/04/29 23:27:58;;;;;;;8.90;5.00;;;22.40;53.00;;;;;;215815;1293;25261;-41
2022/04/29 23:33:06;;;;;;;11.30;5.70;;;22.30;52.60;;;;;;215880;1293;25348;-40
2022/04/29 23:38:11;;;;;;;7.50;4.80;;;22.30;52.60;;;;;;215843;1296;25328;-40
2022/04/29 23:43:18;;;;;;;7.90;4.70;;;22.30;52.60;;;;;;215991;1293;25375;-41
2022/04/29 23:48:22;;;;;;;9.70;5.20;;;22.20;52.50;;;;;;215878;1294;22674;-41
2022/04/29 23:53:30;;;;;;;10.00;5.50;;;22.20;52.40;;;;;;215868;1296;22599;-39
2022/04/29 23:58:34;;;;;;;11.90;5.50;;;22.20;52.50;;;;;;215722;1293;24416;-40
